Skip Navigation LinksHome page > Weather > Current weather Skip Navigation Links

Current Weather

Washington Muni, Washington, Iowa

For information only: do not use for flight planning or navigation.
Latest weather
Observation time Monday, November 29, 2021 3:35 PM CST
Local time Monday, November 29, 2021 3:44 PM CST
Flight conditions Visual Meteorological Conditions
Winds
Wind direction Southwest (220°)
Wind speed 14 mph
Wind gusting to 21 mph
Visibility 10 mi.
Sky condition
Ceiling unlimited
Sky clear
Temperature 57°F
Dewpoint 37°F
Altimeter 29.75 in.Hg
Derived measurements
Relative humidity 47%
Density altitude 946 ft.
Remarks
Fully automated report.
Automated weather observing station with precipitation discriminator.
METAR KAWG 292135Z AUTO 22012G18KT 10SM CLR 14/03 A2975 RMK AO2

Settings

Location code

InnerDrive.Weather 4.0.6770.0 Release CLR 4.0.30319.42000
Copyright ©2018 Inner Drive Technology. All rights reserved. Portions Copyright ©1986-2018 David Braverman.

Find weather

Site navigation


Skip Navigation Links

Place info

Page info

PayPal - The safer, easier way to pay online!

Return home.

Copyright ©2021 Inner Drive Technology. Purveyors of fine, hand-crafted computer software. Page printed 2021-11-29T21:44:56 UTC.